createdAt,value
2023-05-07T00:00:25.503Z,101004.83
2023-05-07T00:02:52.264Z,101003.39
2023-05-07T00:05:20.193Z,101005.17
2023-05-07T00:07:47.914Z,101002.63
2023-05-07T00:10:14.857Z,100996.73
2023-05-07T00:12:41.892Z,100995.38
2023-05-07T00:15:09.991Z,100993.84
2023-05-07T00:17:37.150Z,100993.45
2023-05-07T00:20:04.823Z,100990.42
2023-05-07T00:22:33.284Z,100993.49
2023-05-07T00:25:00.218Z,100995.09
2023-05-07T00:27:26.999Z,100994.34
2023-05-07T00:29:53.708Z,100987.89
2023-05-07T00:32:20.740Z,100986.81
2023-05-07T00:34:47.592Z,100985.55
2023-05-07T00:37:14.375Z,100984.25
2023-05-07T00:39:41.154Z,100985.08
2023-05-07T00:42:09.140Z,100987.19
2023-05-07T00:44:35.862Z,100984.41
2023-05-07T00:47:03.614Z,100982.45
2023-05-07T00:49:42.301Z,100982.61
2023-05-07T00:52:10.620Z,100981.30
2023-05-07T00:54:37.399Z,100981.98
2023-05-07T00:57:04.955Z,100984.76
2023-05-07T00:59:32.857Z,100980.24
2023-05-07T01:02:00.477Z,100988.52
2023-05-07T01:04:27.573Z,100992.81
2023-05-07T01:06:57.746Z,100993.71
2023-05-07T01:09:28.017Z,100996.83
2023-05-07T01:11:55.012Z,101000.66
2023-05-07T01:14:21.796Z,101000.97
2023-05-07T01:16:49.406Z,101005.13
2023-05-07T01:19:18.311Z,101012.60
2023-05-07T01:21:46.855Z,101015.36
2023-05-07T01:24:13.881Z,101016.20
2023-05-07T01:26:41.064Z,101013.52
2023-05-07T01:29:07.936Z,101014.88
2023-05-07T01:31:35.692Z,101009.81
2023-05-07T01:34:03.269Z,101014.36
2023-05-07T01:36:31.327Z,101013.08
2023-05-07T01:38:59.102Z,101016.68
2023-05-07T01:41:26.007Z,101019.86
2023-05-07T01:43:53.211Z,101019.95
2023-05-07T01:46:20.010Z,101022.85
2023-05-07T01:48:47.192Z,101016.80
2023-05-07T01:51:14.285Z,101019.34
2023-05-07T01:53:41.795Z,101019.50
2023-05-07T01:56:09.053Z,101021.02
2023-05-07T01:58:36.877Z,101021.27
2023-05-07T02:01:03.644Z,101024.13
2023-05-07T02:03:31.801Z,101027.94
2023-05-07T02:06:02.678Z,101026.84
2023-05-07T02:08:35.556Z,101022.59
2023-05-07T02:11:03.298Z,101030.87
2023-05-07T02:13:32.467Z,101028.80
2023-05-07T02:15:59.216Z,101036.91
2023-05-07T02:18:27.826Z,101042.56
2023-05-07T02:20:54.867Z,101039.23
2023-05-07T02:23:21.760Z,101038.55
2023-05-07T02:25:48.767Z,101041.29
2023-05-07T02:28:16.432Z,101043.57
2023-05-07T02:30:55.855Z,101043.35
2023-05-07T02:33:22.813Z,101041.36
2023-05-07T02:35:49.733Z,101041.08
2023-05-07T02:38:16.507Z,101039.98
2023-05-07T02:40:43.882Z,101043.64
2023-05-07T02:43:10.740Z,101049.13
2023-05-07T02:45:38.845Z,101053.09
2023-05-07T02:48:07.416Z,101059.94
2023-05-07T02:50:34.282Z,101061.56
2023-05-07T02:53:01.273Z,101063.45
2023-05-07T02:55:28.276Z,101066.05
2023-05-07T02:57:55.107Z,101062.02
2023-05-07T03:00:22.817Z,101063.10
2023-05-07T03:03:01.219Z,101058.46
2023-05-07T03:05:28.118Z,101062.86
2023-05-07T03:07:54.879Z,101062.39
2023-05-07T03:10:21.591Z,101063.45
2023-05-07T03:12:48.374Z,101066.21
2023-05-07T03:15:16.340Z,101069.04
2023-05-07T03:17:43.243Z,101075.52
2023-05-07T03:20:11.443Z,101074.25
2023-05-07T03:22:38.700Z,101078.12
2023-05-07T03:25:06.509Z,101073.56
2023-05-07T03:27:33.310Z,101073.75
2023-05-07T03:30:00.518Z,101075.91
2023-05-07T03:32:27.294Z,101075.89
2023-05-07T03:34:54.279Z,101079.02
2023-05-07T03:37:22.736Z,101082.46
2023-05-07T03:39:49.798Z,101089.71
2023-05-07T03:42:16.951Z,101098.40
2023-05-07T03:44:43.652Z,101097.48
2023-05-07T03:47:11.342Z,101098.55
2023-05-07T03:49:38.713Z,101097.90
2023-05-07T03:52:06.446Z,101097.67
2023-05-07T03:54:33.368Z,101100.88
2023-05-07T03:57:00.506Z,101102.11
2023-05-07T03:59:27.507Z,101103.46
2023-05-07T04:01:54.320Z,101106.82
2023-05-07T04:04:22.753Z,101105.40
2023-05-07T04:06:49.632Z,101108.41
2023-05-07T04:09:16.430Z,101109.38
2023-05-07T04:11:45.081Z,101108.48
2023-05-07T04:14:11.937Z,101109.38
2023-05-07T04:16:39.248Z,101115.09
2023-05-07T04:19:06.829Z,101110.68
2023-05-07T04:21:34.137Z,101107.99
2023-05-07T04:24:01.132Z,101109.36
2023-05-07T04:26:29.457Z,101111.33
2023-05-07T04:28:56.469Z,101103.03
2023-05-07T04:31:23.330Z,101101.48
2023-05-07T04:33:52.602Z,101101.27
2023-05-07T04:36:20.022Z,101098.43
2023-05-07T04:38:51.383Z,101097.43
2023-05-07T04:41:18.653Z,101096.42
2023-05-07T04:43:45.688Z,101106.75
2023-05-07T04:46:13.245Z,101103.23
2023-05-07T04:48:40.359Z,101103.16
2023-05-07T04:51:07.802Z,101100.63
2023-05-07T04:53:34.648Z,101099.09
2023-05-07T04:56:01.409Z,101096.90
2023-05-07T04:58:33.217Z,101096.32
2023-05-07T05:01:00.416Z,101097.91
2023-05-07T05:03:27.375Z,101097.88
2023-05-07T05:05:54.480Z,101096.64
2023-05-07T05:08:21.910Z,101090.15
2023-05-07T05:10:51.005Z,101082.23
2023-05-07T05:13:18.654Z,101082.85
2023-05-07T05:15:46.689Z,101085.05
2023-05-07T05:18:13.749Z,101084.35
2023-05-07T05:20:40.711Z,101081.07
2023-05-07T05:23:08.889Z,101079.11
2023-05-07T05:25:35.961Z,101079.20
2023-05-07T05:28:03.224Z,101080.04
2023-05-07T05:30:30.908Z,101080.24
2023-05-07T05:32:57.874Z,101080.66
2023-05-07T05:35:26.932Z,101076.45
2023-05-07T05:37:53.663Z,101073.94
2023-05-07T05:40:20.399Z,101067.08
2023-05-07T05:42:47.680Z,101065.89
2023-05-07T05:45:16.415Z,101066.96
2023-05-07T05:47:45.810Z,101073.30
2023-05-07T05:50:13.014Z,101074.53
2023-05-07T05:52:41.985Z,101072.70
2023-05-07T05:55:09.981Z,101072.70
2023-05-07T05:57:36.944Z,101071.30
2023-05-07T06:00:05.039Z,101071.77
2023-05-07T06:02:33.090Z,101070.60
2023-05-07T06:04:59.983Z,101067.61
2023-05-07T06:07:26.938Z,101063.02
2023-05-07T06:09:53.689Z,101061.86
2023-05-07T06:12:20.658Z,101061.21
2023-05-07T06:14:48.604Z,101065.88
2023-05-07T06:17:16.938Z,101063.05
2023-05-07T06:19:44.836Z,101070.45
2023-05-07T06:22:12.120Z,101062.40
2023-05-07T06:24:38.886Z,101065.25
2023-05-07T06:27:05.807Z,101067.45
2023-05-07T06:29:34.529Z,101067.95
2023-05-07T06:32:09.622Z,101074.29
2023-05-07T06:34:37.013Z,101072.59
2023-05-07T06:37:03.832Z,101074.70
2023-05-07T06:39:46.121Z,101078.41
2023-05-07T06:42:13.364Z,101081.64
2023-05-07T06:44:41.958Z,101082.20
2023-05-07T06:49:39.815Z,101084.69
2023-05-07T06:52:06.947Z,101089.18
2023-05-07T06:54:33.838Z,101088.79
2023-05-07T06:57:01.731Z,101087.59
2023-05-07T06:59:28.558Z,101083.44
2023-05-07T07:01:55.787Z,101087.99
2023-05-07T07:04:25.170Z,101085.11
2023-05-07T07:06:58.732Z,101080.98
2023-05-07T07:09:26.055Z,101079.14
2023-05-07T07:11:53.273Z,101081.70
2023-05-07T07:14:21.369Z,101084.59
2023-05-07T07:16:50.390Z,101081.50
2023-05-07T07:19:18.123Z,101078.52
2023-05-07T07:21:46.032Z,101074.73
2023-05-07T07:24:14.687Z,101084.02
2023-05-07T07:26:41.442Z,101082.77
2023-05-07T07:29:08.471Z,101082.58
2023-05-07T07:31:36.012Z,101081.38
2023-05-07T07:34:03.061Z,101075.04
2023-05-07T07:36:38.989Z,101079.52
2023-05-07T07:39:14.162Z,101076.90
2023-05-07T07:41:41.638Z,101077.94
2023-05-07T07:44:08.643Z,101078.30
2023-05-07T07:46:36.809Z,101077.73
2023-05-07T07:49:04.015Z,101069.58
2023-05-07T07:51:31.638Z,101070.51
2023-05-07T07:53:58.968Z,101076.80
2023-05-07T07:56:26.296Z,101076.95
2023-05-07T07:58:53.150Z,101073.15
2023-05-07T08:01:20.263Z,101074.65
2023-05-07T08:03:47.297Z,101080.05
2023-05-07T08:06:15.280Z,101075.39
2023-05-07T08:08:42.615Z,101071.92
2023-05-07T08:11:09.457Z,101073.75
2023-05-07T08:13:37.217Z,101074.28
2023-05-07T08:16:05.233Z,101079.90
2023-05-07T08:18:32.762Z,101080.19
2023-05-07T08:21:02.105Z,101077.01
2023-05-07T08:23:29.278Z,101073.08
2023-05-07T08:25:59.074Z,101074.07
2023-05-07T08:28:26.234Z,101071.88
2023-05-07T08:30:53.248Z,101070.91
2023-05-07T08:33:20.229Z,101067.56
2023-05-07T08:35:47.040Z,101068.02
2023-05-07T08:38:14.307Z,101066.34
2023-05-07T08:40:41.994Z,101065.83
2023-05-07T08:43:13.776Z,101060.86
2023-05-07T08:45:41.011Z,101054.99
2023-05-07T08:48:16.596Z,101056.01
2023-05-07T08:50:44.224Z,101060.78
2023-05-07T08:53:11.334Z,101059.19
2023-05-07T08:55:38.483Z,101058.78
2023-05-07T08:58:05.286Z,101063.35
2023-05-07T09:00:32.413Z,101066.91
2023-05-07T09:02:59.771Z,101071.27
2023-05-07T09:05:26.935Z,101066.81
2023-05-07T09:07:54.701Z,101065.08
2023-05-07T09:10:22.512Z,101063.66
2023-05-07T09:12:49.781Z,101067.07
2023-05-07T09:15:17.235Z,101071.25
2023-05-07T09:17:44.626Z,101070.74
2023-05-07T09:20:11.898Z,101067.77
2023-05-07T09:22:39.422Z,101065.50
2023-05-07T09:25:10.597Z,101069.20
2023-05-07T09:27:38.466Z,101070.44
2023-05-07T09:30:09.183Z,101076.68
2023-05-07T09:32:39.118Z,101074.10
2023-05-07T09:35:07.129Z,101068.52
2023-05-07T09:37:34.576Z,101075.41
2023-05-07T09:40:01.685Z,101074.71
2023-05-07T09:42:29.070Z,101079.52
2023-05-07T09:44:58.315Z,101073.89
2023-05-07T09:47:27.220Z,101069.83
2023-05-07T09:49:57.153Z,101069.05
2023-05-07T09:52:24.079Z,101067.48
2023-05-07T09:54:53.981Z,101075.13
2023-05-07T09:57:22.361Z,101081.65
2023-05-07T09:59:52.103Z,101083.42
2023-05-07T10:02:19.384Z,101078.83
2023-05-07T10:04:48.443Z,101073.71
2023-05-07T10:07:16.129Z,101070.45
2023-05-07T10:09:44.878Z,101072.83
2023-05-07T10:12:18.664Z,101066.88
2023-05-07T10:14:46.519Z,101065.63
2023-05-07T10:17:13.598Z,101059.02
2023-05-07T10:19:42.288Z,101054.48
2023-05-07T10:22:09.575Z,101047.09
2023-05-07T10:24:40.501Z,101046.34
2023-05-07T10:27:12.349Z,101032.79
2023-05-07T10:29:46.940Z,101038.21
2023-05-07T10:32:42.127Z,101029.95
2023-05-07T10:35:17.735Z,101025.94
2023-05-07T10:37:45.876Z,101021.94
2023-05-07T10:40:13.522Z,101016.96
2023-05-07T10:42:57.193Z,101018.45
2023-05-07T10:45:24.856Z,101027.98
2023-05-07T10:48:29.738Z,101021.32
2023-05-07T10:51:24.297Z,101016.95
2023-05-07T10:54:13.030Z,101013.36
2023-05-07T10:56:49.209Z,101008.74
2023-05-07T10:59:24.148Z,101007.10
2023-05-07T11:01:57.357Z,101008.83
2023-05-07T11:04:36.020Z,101015.30
2023-05-07T11:07:26.137Z,101019.52
2023-05-07T11:09:54.618Z,101014.09
2023-05-07T11:12:39.785Z,101018.59
2023-05-07T11:15:13.239Z,101016.30
2023-05-07T11:17:56.974Z,101007.98
2023-05-07T11:20:46.969Z,100995.95
2023-05-07T11:23:36.060Z,100991.64
2023-05-07T11:26:15.539Z,100993.00
2023-05-07T11:28:43.297Z,100991.08
2023-05-07T11:31:10.936Z,100991.87
2023-05-07T11:33:38.782Z,100993.73
2023-05-07T11:37:41.168Z,100998.69
2023-05-07T11:40:10.414Z,101000.98
2023-05-07T11:42:39.036Z,100998.61
2023-05-07T11:45:07.077Z,101000.53
2023-05-07T11:47:34.284Z,101000.15
2023-05-07T11:50:09.690Z,101004.16
2023-05-07T11:52:38.711Z,101001.02
2023-05-07T11:55:05.969Z,101002.13
2023-05-07T11:57:33.931Z,101000.66
2023-05-07T12:00:02.764Z,101002.92
2023-05-07T12:02:39.823Z,100999.33
2023-05-07T12:05:07.270Z,101005.30
2023-05-07T12:07:37.324Z,100999.68
2023-05-07T12:10:07.766Z,100993.77
2023-05-07T12:12:43.258Z,100992.52
2023-05-07T12:15:11.319Z,100987.14
2023-05-07T12:17:38.663Z,100982.42
2023-05-07T12:20:07.243Z,100986.19
2023-05-07T12:22:34.030Z,100982.42
2023-05-07T12:25:04.239Z,100984.32
2023-05-07T12:27:31.688Z,100981.84
2023-05-07T12:29:59.062Z,100979.52
2023-05-07T12:32:25.891Z,100975.04
2023-05-07T12:34:52.626Z,100977.11
2023-05-07T12:37:24.573Z,100969.08
2023-05-07T12:40:07.449Z,100959.58
2023-05-07T12:42:36.472Z,100960.05
2023-05-07T12:45:14.523Z,100962.44
2023-05-07T12:47:46.196Z,100968.23
2023-05-07T12:50:15.280Z,100972.30
2023-05-07T12:52:42.156Z,100969.09
2023-05-07T12:55:10.097Z,100966.10
2023-05-07T12:57:41.295Z,100966.30
2023-05-07T13:00:08.446Z,100968.60
2023-05-07T13:02:36.019Z,100964.02
2023-05-07T13:05:03.833Z,100965.20
2023-05-07T13:07:30.967Z,100965.17
2023-05-07T13:09:57.844Z,100961.55
2023-05-07T13:12:25.550Z,100959.00
2023-05-07T13:14:52.292Z,100965.85
2023-05-07T13:17:19.862Z,100963.56
2023-05-07T13:19:46.789Z,100963.67
2023-05-07T13:22:13.524Z,100964.52
2023-05-07T13:24:42.795Z,100962.41
2023-05-07T13:27:09.583Z,100962.30
2023-05-07T13:29:36.740Z,100964.38
2023-05-07T13:32:03.629Z,100965.74
2023-05-07T13:34:31.015Z,100967.86
2023-05-07T13:36:57.754Z,100970.59
2023-05-07T13:39:24.557Z,100968.20
2023-05-07T13:41:51.294Z,100966.84
2023-05-07T13:44:18.187Z,100964.27
2023-05-07T13:46:44.894Z,100966.30
2023-05-07T13:49:12.316Z,100959.23
2023-05-07T13:51:39.130Z,100965.25
2023-05-07T13:54:05.913Z,100967.14
2023-05-07T13:56:33.512Z,100963.19
2023-05-07T13:59:01.029Z,100963.29
2023-05-07T14:01:28.324Z,100970.42
2023-05-07T14:03:56.323Z,100965.05
2023-05-07T14:06:23.108Z,100964.54
2023-05-07T14:08:50.089Z,100961.16
2023-05-07T14:11:17.247Z,100957.41
2023-05-07T14:13:44.024Z,100955.33
2023-05-07T14:16:10.935Z,100954.89
2023-05-07T14:18:39.635Z,100945.38
2023-05-07T14:21:10.830Z,100944.83
2023-05-07T14:23:37.752Z,100946.31
2023-05-07T14:26:04.703Z,100946.56
2023-05-07T14:28:34.310Z,100943.39
2023-05-07T14:31:01.257Z,100943.20
2023-05-07T14:33:28.096Z,100942.01
2023-05-07T14:35:54.886Z,100941.88
2023-05-07T14:38:21.879Z,100946.40
2023-05-07T14:40:48.651Z,100947.01
2023-05-07T14:43:15.407Z,100950.81
2023-05-07T14:45:42.193Z,100948.79
2023-05-07T14:48:10.446Z,100944.90
2023-05-07T14:50:37.846Z,100944.92
2023-05-07T14:53:04.955Z,100940.77
2023-05-07T14:55:33.389Z,100936.13
2023-05-07T14:58:01.116Z,100936.86
2023-05-07T15:00:27.839Z,100938.30
2023-05-07T15:02:54.808Z,100942.91
2023-05-07T15:05:21.681Z,100941.92
2023-05-07T15:07:48.457Z,100937.64
2023-05-07T15:10:15.335Z,100943.09
2023-05-07T15:12:42.184Z,100951.75
2023-05-07T15:15:13.069Z,100954.33
2023-05-07T15:17:40.099Z,100958.60
2023-05-07T15:20:07.823Z,100957.16
2023-05-07T15:22:34.833Z,100961.60
2023-05-07T15:25:01.666Z,100959.62
2023-05-07T15:27:28.713Z,100966.22
2023-05-07T15:29:55.864Z,100967.45
2023-05-07T15:32:22.659Z,100968.57
2023-05-07T15:34:49.522Z,100972.98
2023-05-07T15:37:16.542Z,100968.63
2023-05-07T15:39:43.338Z,100965.05
2023-05-07T15:42:10.144Z,100964.35
2023-05-07T15:44:36.839Z,100970.39
2023-05-07T15:47:03.667Z,100967.78
2023-05-07T15:49:30.742Z,100965.61
2023-05-07T15:51:58.187Z,100967.23
2023-05-07T15:54:25.401Z,100967.84
2023-05-07T15:56:52.244Z,100966.30
2023-05-07T15:59:20.200Z,100962.48
2023-05-07T16:01:47.017Z,100967.48
2023-05-07T16:04:13.828Z,100963.23
2023-05-07T16:06:41.165Z,100967.55
2023-05-07T16:09:10.275Z,100963.98
2023-05-07T16:11:37.052Z,100970.75
2023-05-07T16:14:03.801Z,100973.09
2023-05-07T16:16:34.837Z,100981.27
2023-05-07T16:19:01.742Z,100983.20
2023-05-07T16:21:29.538Z,100982.20
2023-05-07T16:23:56.283Z,100978.34
2023-05-07T16:26:23.003Z,100980.59
2023-05-07T16:28:49.833Z,100985.01
2023-05-07T16:31:16.714Z,100989.92
2023-05-07T16:33:43.450Z,100990.73
2023-05-07T16:36:10.397Z,100989.70
2023-05-07T16:38:37.215Z,100990.09
2023-05-07T16:41:05.724Z,100987.42
2023-05-07T16:43:32.881Z,100988.41
2023-05-07T16:45:59.794Z,100990.04
2023-05-07T16:48:26.568Z,100992.17
2023-05-07T16:50:53.253Z,100991.33
2023-05-07T16:53:20.577Z,100991.34
2023-05-07T16:55:47.404Z,100992.05
2023-05-07T16:58:15.380Z,100988.85
2023-05-07T17:00:50.550Z,100990.31
2023-05-07T17:03:18.640Z,100991.05
2023-05-07T17:05:46.743Z,100993.98
2023-05-07T17:08:14.064Z,100996.14
2023-05-07T17:10:41.386Z,100995.24
2023-05-07T17:13:08.229Z,100993.88
2023-05-07T17:15:35.173Z,100995.02
2023-05-07T17:18:02.115Z,100996.21
2023-05-07T17:20:29.027Z,100996.89
2023-05-07T17:22:56.113Z,100996.98
2023-05-07T17:25:23.430Z,100994.80
2023-05-07T17:27:50.366Z,100994.29
2023-05-07T17:30:20.567Z,100996.90
2023-05-07T17:32:47.316Z,101001.91
2023-05-07T17:35:14.142Z,101007.63
2023-05-07T17:37:41.678Z,101004.97
2023-05-07T17:40:08.843Z,101010.55
2023-05-07T17:42:35.745Z,101012.45
2023-05-07T17:45:02.524Z,101012.08
2023-05-07T17:47:30.067Z,101017.13
2023-05-07T17:49:56.892Z,101013.33
2023-05-07T17:52:24.405Z,101021.63
2023-05-07T17:54:51.227Z,101024.38
2023-05-07T17:57:17.970Z,101020.26
2023-05-07T17:59:44.813Z,101025.25
2023-05-07T18:02:11.624Z,101026.58
2023-05-07T18:04:38.384Z,101024.83
2023-05-07T18:07:05.231Z,101025.66
2023-05-07T18:09:32.180Z,101028.58
2023-05-07T18:11:58.910Z,101028.99
2023-05-07T18:14:26.256Z,101031.28
2023-05-07T18:16:54.186Z,101034.61
2023-05-07T18:19:21.425Z,101037.19
2023-05-07T18:21:49.140Z,101042.52
2023-05-07T18:24:16.219Z,101041.92
2023-05-07T18:26:43.023Z,101044.27
2023-05-07T18:29:09.734Z,101043.08
2023-05-07T18:31:38.063Z,101040.77
2023-05-07T18:34:06.307Z,101043.56
2023-05-07T18:36:33.247Z,101041.67
2023-05-07T18:39:00.063Z,101041.91
2023-05-07T18:41:26.868Z,101042.77
2023-05-07T18:43:53.653Z,101045.89
2023-05-07T18:46:20.669Z,101045.40
2023-05-07T18:48:47.615Z,101050.52
2023-05-07T18:51:14.374Z,101053.48
2023-05-07T18:53:41.878Z,101055.34
2023-05-07T18:56:08.850Z,101056.20
2023-05-07T18:58:36.018Z,101051.89
2023-05-07T19:01:05.731Z,101050.10
2023-05-07T19:03:32.490Z,101047.00
2023-05-07T19:05:59.518Z,101045.69
2023-05-07T19:08:26.436Z,101049.16
2023-05-07T19:10:56.442Z,101051.08
2023-05-07T19:13:27.476Z,101054.92
2023-05-07T19:15:54.818Z,101055.15
2023-05-07T19:18:21.770Z,101055.86
2023-05-07T19:20:50.010Z,101058.80
2023-05-07T19:23:18.731Z,101058.50
2023-05-07T19:25:45.588Z,101053.40
2023-05-07T19:28:12.390Z,101057.22
2023-05-07T19:30:40.418Z,101056.83
2023-05-07T19:33:07.318Z,101052.41
2023-05-07T19:35:35.462Z,101049.40
2023-05-07T19:38:02.613Z,101053.66
2023-05-07T19:40:29.574Z,101053.50
2023-05-07T19:42:56.346Z,101055.50
2023-05-07T19:45:23.138Z,101057.99
2023-05-07T19:47:49.997Z,101060.60
2023-05-07T19:50:17.104Z,101057.16
2023-05-07T19:52:43.930Z,101056.80
2023-05-07T19:55:10.786Z,101056.96
2023-05-07T19:57:37.719Z,101054.90
2023-05-07T20:00:06.734Z,101052.67
2023-05-07T20:02:40.075Z,101053.85
2023-05-07T20:05:08.578Z,101056.65
2023-05-07T20:07:35.860Z,101052.96
2023-05-07T20:10:02.884Z,101058.81
2023-05-07T20:12:29.719Z,101058.52
2023-05-07T20:14:56.496Z,101059.13
2023-05-07T20:17:23.254Z,101062.27
2023-05-07T20:19:50.290Z,101062.54
2023-05-07T20:22:17.098Z,101062.95
2023-05-07T20:24:43.896Z,101063.61
2023-05-07T20:27:10.898Z,101068.86
2023-05-07T20:29:37.689Z,101068.70
2023-05-07T20:32:04.848Z,101068.85
2023-05-07T20:34:32.565Z,101074.58
2023-05-07T20:36:59.621Z,101072.07
2023-05-07T20:39:26.453Z,101076.01
2023-05-07T20:41:53.497Z,101078.07
2023-05-07T20:44:20.330Z,101078.42
2023-05-07T20:46:47.773Z,101081.35
2023-05-07T20:49:14.972Z,101089.11
2023-05-07T20:51:41.801Z,101095.70
2023-05-07T20:54:08.826Z,101092.10
2023-05-07T20:56:35.690Z,101088.94
2023-05-07T20:59:02.438Z,101090.50
2023-05-07T21:01:29.654Z,101089.06
2023-05-07T21:03:56.721Z,101092.45
2023-05-07T21:06:23.586Z,101092.84
2023-05-07T21:08:50.363Z,101092.42
2023-05-07T21:11:18.155Z,101084.73
2023-05-07T21:13:45.169Z,101090.52
2023-05-07T21:16:12.086Z,101090.83
2023-05-07T21:18:38.994Z,101089.79
2023-05-07T21:21:09.756Z,101090.73
2023-05-07T21:23:36.890Z,101092.77
2023-05-07T21:26:03.950Z,101096.33
2023-05-07T21:28:31.018Z,101102.48
2023-05-07T21:30:57.804Z,101102.61
2023-05-07T21:33:24.580Z,101104.52
2023-05-07T21:35:51.292Z,101103.34
2023-05-07T21:38:18.994Z,101103.58
2023-05-07T21:40:45.984Z,101106.39
2023-05-07T21:43:12.808Z,101105.59
2023-05-07T21:45:41.023Z,101109.63
2023-05-07T21:48:07.946Z,101108.35
2023-05-07T21:50:34.878Z,101107.39
2023-05-07T21:53:01.703Z,101106.30
2023-05-07T21:55:28.536Z,101105.27
2023-05-07T21:58:04.946Z,101102.34
2023-05-07T22:00:33.212Z,101099.74
2023-05-07T22:03:00.386Z,101098.34
2023-05-07T22:05:27.660Z,101099.85
2023-05-07T22:07:54.387Z,101106.73
2023-05-07T22:10:22.996Z,101104.31
2023-05-07T22:12:51.123Z,101108.40
2023-05-07T22:15:18.085Z,101108.34
2023-05-07T22:17:44.995Z,101111.48
2023-05-07T22:20:12.306Z,101112.02
2023-05-07T22:22:51.854Z,101111.77
2023-05-07T22:25:20.228Z,101109.73
2023-05-07T22:27:47.103Z,101107.34
2023-05-07T22:30:14.240Z,101107.42
2023-05-07T22:32:44.692Z,101110.33
2023-05-07T22:35:11.696Z,101113.61
2023-05-07T22:37:38.531Z,101111.17
2023-05-07T22:40:06.392Z,101110.61
2023-05-07T22:42:33.212Z,101107.79
2023-05-07T22:44:59.970Z,101113.23
2023-05-07T22:47:29.415Z,101107.34
2023-05-07T22:49:56.258Z,101110.70
2023-05-07T22:52:23.011Z,101109.55
2023-05-07T22:54:49.811Z,101112.55
2023-05-07T22:57:16.647Z,101107.65
2023-05-07T22:59:43.486Z,101112.42
2023-05-07T23:02:10.474Z,101110.77
2023-05-07T23:04:37.346Z,101114.31
2023-05-07T23:07:04.207Z,101110.73
2023-05-07T23:09:31.229Z,101109.81
2023-05-07T23:11:58.036Z,101113.33
2023-05-07T23:14:24.814Z,101102.92
2023-05-07T23:16:51.625Z,101104.83
2023-05-07T23:19:18.871Z,101105.15
2023-05-07T23:21:45.790Z,101103.11
2023-05-07T23:24:12.634Z,101103.11
2023-05-07T23:26:39.409Z,101106.45
2023-05-07T23:29:06.264Z,101103.52
2023-05-07T23:31:33.212Z,101105.51
2023-05-07T23:34:00.134Z,101102.55
2023-05-07T23:36:27.160Z,101103.45
2023-05-07T23:38:53.925Z,101110.41
2023-05-07T23:41:21.145Z,101105.00
2023-05-07T23:43:47.867Z,101108.88
2023-05-07T23:46:14.636Z,101111.21
2023-05-07T23:48:41.485Z,101112.95
2023-05-07T23:54:08.147Z,101121.00
2023-05-07T23:56:34.871Z,101113.50
2023-05-07T23:59:01.613Z,101117.36
